sensor_id;sensor_type;location;lat;lon;timestamp;temperature;humidity
25937;DHT22;13733;51.178;4.450;2022-07-29T00:00:09;20.00;99.90
25937;DHT22;13733;51.178;4.450;2022-07-29T00:02:34;20.00;99.90
25937;DHT22;13733;51.178;4.450;2022-07-29T00:05:02;19.90;99.90
25937;DHT22;13733;51.178;4.450;2022-07-29T00:07:28;19.90;99.90
25937;DHT22;13733;51.178;4.450;2022-07-29T00:09:54;19.90;99.90
25937;DHT22;13733;51.178;4.450;2022-07-29T00:12:22;19.80;99.90
25937;DHT22;13733;51.178;4.450;2022-07-29T00:14:48;19.90;99.90
25937;DHT22;13733;51.178;4.450;2022-07-29T00:17:14;19.80;99.90
25937;DHT22;13733;51.178;4.450;2022-07-29T00:19:40;19.80;99.90
25937;DHT22;13733;51.178;4.450;2022-07-29T00:22:05;19.80;99.90
25937;DHT22;13733;51.178;4.450;2022-07-29T00:24:31;19.70;99.90
25937;DHT22;13733;51.178;4.450;2022-07-29T00:26:57;19.70;99.90
25937;DHT22;13733;51.178;4.450;2022-07-29T00:29:23;19.60;99.90
25937;DHT22;13733;51.178;4.450;2022-07-29T00:31:49;19.60;99.90
25937;DHT22;13733;51.178;4.450;2022-07-29T00:34:15;19.60;99.90
25937;DHT22;13733;51.178;4.450;2022-07-29T00:36:59;19.50;99.90
25937;DHT22;13733;51.178;4.450;2022-07-29T00:39:25;19.60;99.90
25937;DHT22;13733;51.178;4.450;2022-07-29T00:41:51;19.60;99.90
25937;DHT22;13733;51.178;4.450;2022-07-29T00:44:17;19.50;99.90
25937;DHT22;13733;51.178;4.450;2022-07-29T00:46:43;19.50;99.90
25937;DHT22;13733;51.178;4.450;2022-07-29T00:49:09;19.60;99.90
25937;DHT22;13733;51.178;4.450;2022-07-29T00:51:38;19.50;99.90
25937;DHT22;13733;51.178;4.450;2022-07-29T00:54:05;19.40;99.90
25937;DHT22;13733;51.178;4.450;2022-07-29T00:56:32;19.40;99.90
25937;DHT22;13733;51.178;4.450;2022-07-29T00:58:58;19.50;99.90
25937;DHT22;13733;51.178;4.450;2022-07-29T01:01:24;19.60;99.90
25937;DHT22;13733;51.178;4.450;2022-07-29T01:03:50;19.60;99.90
25937;DHT22;13733;51.178;4.450;2022-07-29T01:06:19;19.60;99.90
25937;DHT22;13733;51.178;4.450;2022-07-29T01:08:47;19.60;99.90
25937;DHT22;13733;51.178;4.450;2022-07-29T01:11:14;19.60;99.90
25937;DHT22;13733;51.178;4.450;2022-07-29T01:13:43;19.60;99.90
25937;DHT22;13733;51.178;4.450;2022-07-29T01:16:18;19.60;99.90
25937;DHT22;13733;51.178;4.450;2022-07-29T01:18:48;19.60;99.90
25937;DHT22;13733;51.178;4.450;2022-07-29T01:21:32;19.50;99.90
25937;DHT22;13733;51.178;4.450;2022-07-29T01:24:29;19.50;99.90
25937;DHT22;13733;51.178;4.450;2022-07-29T01:27:15;19.50;99.90
25937;DHT22;13733;51.178;4.450;2022-07-29T01:29:56;19.40;99.90
25937;DHT22;13733;51.178;4.450;2022-07-29T01:32:26;19.40;99.90
25937;DHT22;13733;51.178;4.450;2022-07-29T01:37:57;19.30;99.90
25937;DHT22;13733;51.178;4.450;2022-07-29T01:43:17;19.20;99.90
25937;DHT22;13733;51.178;4.450;2022-07-29T01:46:09;19.20;99.90
25937;DHT22;13733;51.178;4.450;2022-07-29T01:48:43;19.10;99.90
25937;DHT22;13733;51.178;4.450;2022-07-29T01:51:18;19.10;99.90
25937;DHT22;13733;51.178;4.450;2022-07-29T01:54:19;19.10;99.90
25937;DHT22;13733;51.178;4.450;2022-07-29T01:56:47;19.10;99.90
25937;DHT22;13733;51.178;4.450;2022-07-29T01:59:16;19.10;99.90
25937;DHT22;13733;51.178;4.450;2022-07-29T02:01:44;19.10;99.90
25937;DHT22;13733;51.178;4.450;2022-07-29T02:04:12;19.00;99.90
25937;DHT22;13733;51.178;4.450;2022-07-29T02:06:39;19.00;99.90
25937;DHT22;13733;51.178;4.450;2022-07-29T02:09:07;18.90;99.90
25937;DHT22;13733;51.178;4.450;2022-07-29T02:11:35;18.90;99.90
25937;DHT22;13733;51.178;4.450;2022-07-29T02:14:03;18.80;99.90
25937;DHT22;13733;51.178;4.450;2022-07-29T02:16:32;18.70;99.90
25937;DHT22;13733;51.178;4.450;2022-07-29T02:19:01;18.70;99.90
25937;DHT22;13733;51.178;4.450;2022-07-29T02:21:27;18.60;99.90
25937;DHT22;13733;51.178;4.450;2022-07-29T02:23:58;18.50;99.90
25937;DHT22;13733;51.178;4.450;2022-07-29T02:26:25;18.50;99.90
25937;DHT22;13733;51.178;4.450;2022-07-29T02:28:55;18.40;99.90
25937;DHT22;13733;51.178;4.450;2022-07-29T02:31:24;18.40;99.90
25937;DHT22;13733;51.178;4.450;2022-07-29T02:33:52;18.40;99.90
25937;DHT22;13733;51.178;4.450;2022-07-29T02:36:20;18.40;99.90
25937;DHT22;13733;51.178;4.450;2022-07-29T02:38:47;18.30;99.90
25937;DHT22;13733;51.178;4.450;2022-07-29T02:44:23;18.20;99.90
25937;DHT22;13733;51.178;4.450;2022-07-29T02:47:12;18.20;99.90
25937;DHT22;13733;51.178;4.450;2022-07-29T02:52:49;18.20;99.90
25937;DHT22;13733;51.178;4.450;2022-07-29T02:58:27;18.20;99.90
25937;DHT22;13733;51.178;4.450;2022-07-29T03:00:59;18.10;99.90
25937;DHT22;13733;51.178;4.450;2022-07-29T03:03:31;18.00;99.90
25937;DHT22;13733;51.178;4.450;2022-07-29T03:05:59;18.00;99.90
25937;DHT22;13733;51.178;4.450;2022-07-29T03:08:27;18.00;99.90
25937;DHT22;13733;51.178;4.450;2022-07-29T03:10:53;18.00;99.90
25937;DHT22;13733;51.178;4.450;2022-07-29T03:13:20;17.90;99.90
25937;DHT22;13733;51.178;4.450;2022-07-29T03:15:47;17.90;99.90
25937;DHT22;13733;51.178;4.450;2022-07-29T03:18:13;17.90;99.90
25937;DHT22;13733;51.178;4.450;2022-07-29T03:20:40;17.90;99.90
25937;DHT22;13733;51.178;4.450;2022-07-29T03:23:08;17.80;99.90
25937;DHT22;13733;51.178;4.450;2022-07-29T03:25:34;17.70;99.90
25937;DHT22;13733;51.178;4.450;2022-07-29T03:27:59;17.70;99.90
25937;DHT22;13733;51.178;4.450;2022-07-29T03:30:25;17.70;99.90
25937;DHT22;13733;51.178;4.450;2022-07-29T03:32:52;17.60;99.90
25937;DHT22;13733;51.178;4.450;2022-07-29T03:35:19;17.60;99.90
25937;DHT22;13733;51.178;4.450;2022-07-29T03:37:46;17.60;99.90
25937;DHT22;13733;51.178;4.450;2022-07-29T03:40:15;17.50;99.90
25937;DHT22;13733;51.178;4.450;2022-07-29T03:42:42;17.40;99.90
25937;DHT22;13733;51.178;4.450;2022-07-29T03:45:12;17.50;99.90
25937;DHT22;13733;51.178;4.450;2022-07-29T03:47:43;17.40;99.90
25937;DHT22;13733;51.178;4.450;2022-07-29T03:50:12;17.40;99.90
25937;DHT22;13733;51.178;4.450;2022-07-29T03:52:40;17.40;99.90
25937;DHT22;13733;51.178;4.450;2022-07-29T03:55:07;17.40;99.90
25937;DHT22;13733;51.178;4.450;2022-07-29T03:57:35;17.30;99.90
25937;DHT22;13733;51.178;4.450;2022-07-29T04:00:03;17.30;99.90
25937;DHT22;13733;51.178;4.450;2022-07-29T04:02:30;17.20;99.90
25937;DHT22;13733;51.178;4.450;2022-07-29T04:04:57;17.20;99.90
25937;DHT22;13733;51.178;4.450;2022-07-29T04:07:23;17.20;99.90
25937;DHT22;13733;51.178;4.450;2022-07-29T04:09:48;17.20;99.90
25937;DHT22;13733;51.178;4.450;2022-07-29T04:12:14;17.20;99.90
25937;DHT22;13733;51.178;4.450;2022-07-29T04:14:41;17.20;99.90
25937;DHT22;13733;51.178;4.450;2022-07-29T04:17:07;17.10;99.90
25937;DHT22;13733;51.178;4.450;2022-07-29T04:19:33;17.20;99.90
25937;DHT22;13733;51.178;4.450;2022-07-29T04:22:00;17.20;99.90
25937;DHT22;13733;51.178;4.450;2022-07-29T04:24:26;17.20;99.90
25937;DHT22;13733;51.178;4.450;2022-07-29T04:26:52;17.30;99.90
25937;DHT22;13733;51.178;4.450;2022-07-29T04:29:18;17.20;99.90
25937;DHT22;13733;51.178;4.450;2022-07-29T04:31:45;17.20;99.90
25937;DHT22;13733;51.178;4.450;2022-07-29T04:34:11;17.30;99.90
25937;DHT22;13733;51.178;4.450;2022-07-29T04:36:36;17.30;99.90
25937;DHT22;13733;51.178;4.450;2022-07-29T04:39:03;17.40;99.90
25937;DHT22;13733;51.178;4.450;2022-07-29T04:41:28;17.40;99.90
25937;DHT22;13733;51.178;4.450;2022-07-29T04:43:54;17.40;99.90
25937;DHT22;13733;51.178;4.450;2022-07-29T04:46:21;17.40;99.90
25937;DHT22;13733;51.178;4.450;2022-07-29T04:48:47;17.40;99.90
25937;DHT22;13733;51.178;4.450;2022-07-29T04:51:16;17.40;99.90
25937;DHT22;13733;51.178;4.450;2022-07-29T04:53:42;17.40;99.90
25937;DHT22;13733;51.178;4.450;2022-07-29T04:56:07;17.50;99.90
25937;DHT22;13733;51.178;4.450;2022-07-29T04:58:36;17.50;99.90
25937;DHT22;13733;51.178;4.450;2022-07-29T05:01:03;17.50;99.90
25937;DHT22;13733;51.178;4.450;2022-07-29T05:03:29;17.50;99.90
25937;DHT22;13733;51.178;4.450;2022-07-29T05:05:55;17.60;99.90
25937;DHT22;13733;51.178;4.450;2022-07-29T05:08:21;17.70;99.90
25937;DHT22;13733;51.178;4.450;2022-07-29T05:10:46;17.80;99.90
25937;DHT22;13733;51.178;4.450;2022-07-29T05:13:12;17.90;99.90
25937;DHT22;13733;51.178;4.450;2022-07-29T05:15:38;17.80;99.90
25937;DHT22;13733;51.178;4.450;2022-07-29T05:18:04;17.80;99.90
25937;DHT22;13733;51.178;4.450;2022-07-29T05:20:30;17.80;99.90
25937;DHT22;13733;51.178;4.450;2022-07-29T05:22:57;17.80;99.90
25937;DHT22;13733;51.178;4.450;2022-07-29T05:25:24;17.80;99.90
25937;DHT22;13733;51.178;4.450;2022-07-29T05:27:50;17.80;99.90
25937;DHT22;13733;51.178;4.450;2022-07-29T05:30:17;17.80;99.90
25937;DHT22;13733;51.178;4.450;2022-07-29T05:32:43;17.80;99.90
25937;DHT22;13733;51.178;4.450;2022-07-29T05:35:08;17.70;99.90
25937;DHT22;13733;51.178;4.450;2022-07-29T05:37:34;17.70;99.90
25937;DHT22;13733;51.178;4.450;2022-07-29T05:40:01;17.80;99.90
25937;DHT22;13733;51.178;4.450;2022-07-29T05:42:28;17.90;99.90
25937;DHT22;13733;51.178;4.450;2022-07-29T05:44:54;18.00;99.90
25937;DHT22;13733;51.178;4.450;2022-07-29T05:47:21;18.20;99.90
25937;DHT22;13733;51.178;4.450;2022-07-29T05:49:46;18.40;99.90
25937;DHT22;13733;51.178;4.450;2022-07-29T05:52:13;18.40;99.90
25937;DHT22;13733;51.178;4.450;2022-07-29T05:54:39;18.40;99.90
25937;DHT22;13733;51.178;4.450;2022-07-29T05:57:05;18.50;99.90
25937;DHT22;13733;51.178;4.450;2022-07-29T05:59:35;18.60;99.90
25937;DHT22;13733;51.178;4.450;2022-07-29T06:02:01;18.80;99.90
25937;DHT22;13733;51.178;4.450;2022-07-29T06:04:27;18.90;99.90
25937;DHT22;13733;51.178;4.450;2022-07-29T06:06:53;18.80;99.90
25937;DHT22;13733;51.178;4.450;2022-07-29T06:09:19;18.90;99.90
25937;DHT22;13733;51.178;4.450;2022-07-29T06:11:46;19.00;99.90
25937;DHT22;13733;51.178;4.450;2022-07-29T06:14:13;19.00;99.90
25937;DHT22;13733;51.178;4.450;2022-07-29T06:16:40;19.20;99.90
25937;DHT22;13733;51.178;4.450;2022-07-29T06:19:06;19.40;99.90
25937;DHT22;13733;51.178;4.450;2022-07-29T06:21:32;19.50;99.90
25937;DHT22;13733;51.178;4.450;2022-07-29T06:23:59;19.70;99.90
25937;DHT22;13733;51.178;4.450;2022-07-29T06:26:25;19.60;99.90
25937;DHT22;13733;51.178;4.450;2022-07-29T06:28:50;19.40;99.90
25937;DHT22;13733;51.178;4.450;2022-07-29T06:31:16;19.30;99.90
25937;DHT22;13733;51.178;4.450;2022-07-29T06:33:42;19.00;99.90
25937;DHT22;13733;51.178;4.450;2022-07-29T06:36:08;18.90;99.90
25937;DHT22;13733;51.178;4.450;2022-07-29T06:38:36;18.90;99.90
25937;DHT22;13733;51.178;4.450;2022-07-29T06:41:03;18.80;99.90
25937;DHT22;13733;51.178;4.450;2022-07-29T06:43:36;18.90;99.90
25937;DHT22;13733;51.178;4.450;2022-07-29T06:46:05;18.90;99.90
25937;DHT22;13733;51.178;4.450;2022-07-29T06:48:32;18.90;99.90
25937;DHT22;13733;51.178;4.450;2022-07-29T06:50:59;18.90;99.90
25937;DHT22;13733;51.178;4.450;2022-07-29T06:53:26;19.10;99.90
25937;DHT22;13733;51.178;4.450;2022-07-29T06:55:52;19.10;99.90
25937;DHT22;13733;51.178;4.450;2022-07-29T06:58:17;19.10;99.90
25937;DHT22;13733;51.178;4.450;2022-07-29T07:00:55;19.20;99.90
25937;DHT22;13733;51.178;4.450;2022-07-29T07:03:21;19.30;99.90
25937;DHT22;13733;51.178;4.450;2022-07-29T07:05:48;19.50;99.90
25937;DHT22;13733;51.178;4.450;2022-07-29T07:08:14;19.70;99.90
25937;DHT22;13733;51.178;4.450;2022-07-29T07:10:42;19.80;99.90
25937;DHT22;13733;51.178;4.450;2022-07-29T07:13:08;20.00;99.90
25937;DHT22;13733;51.178;4.450;2022-07-29T07:15:36;19.90;99.90
25937;DHT22;13733;51.178;4.450;2022-07-29T07:18:02;20.00;99.90
25937;DHT22;13733;51.178;4.450;2022-07-29T07:20:28;20.10;99.90
25937;DHT22;13733;51.178;4.450;2022-07-29T07:22:54;20.10;99.90
25937;DHT22;13733;51.178;4.450;2022-07-29T07:25:20;20.10;99.90
25937;DHT22;13733;51.178;4.450;2022-07-29T07:27:48;20.00;99.90
25937;DHT22;13733;51.178;4.450;2022-07-29T07:30:14;20.00;99.90
25937;DHT22;13733;51.178;4.450;2022-07-29T07:32:40;20.10;99.90
25937;DHT22;13733;51.178;4.450;2022-07-29T07:35:06;20.30;99.90
25937;DHT22;13733;51.178;4.450;2022-07-29T07:37:33;20.20;99.90
25937;DHT22;13733;51.178;4.450;2022-07-29T07:39:59;20.30;99.90
25937;DHT22;13733;51.178;4.450;2022-07-29T07:42:25;20.40;99.90
25937;DHT22;13733;51.178;4.450;2022-07-29T07:44:50;20.60;99.90
25937;DHT22;13733;51.178;4.450;2022-07-29T07:47:16;20.70;99.90
25937;DHT22;13733;51.178;4.450;2022-07-29T07:49:52;20.90;99.90
25937;DHT22;13733;51.178;4.450;2022-07-29T07:52:20;21.10;99.90
25937;DHT22;13733;51.178;4.450;2022-07-29T07:54:47;21.20;99.90
25937;DHT22;13733;51.178;4.450;2022-07-29T07:57:13;21.30;99.90
25937;DHT22;13733;51.178;4.450;2022-07-29T07:59:39;21.40;99.90
25937;DHT22;13733;51.178;4.450;2022-07-29T08:02:06;21.50;99.90
25937;DHT22;13733;51.178;4.450;2022-07-29T08:04:32;21.50;99.90
25937;DHT22;13733;51.178;4.450;2022-07-29T08:07:00;21.60;99.90
25937;DHT22;13733;51.178;4.450;2022-07-29T08:09:29;21.70;99.90
25937;DHT22;13733;51.178;4.450;2022-07-29T08:11:55;21.90;99.90
25937;DHT22;13733;51.178;4.450;2022-07-29T08:14:21;22.00;99.90
25937;DHT22;13733;51.178;4.450;2022-07-29T08:16:47;22.00;99.90
25937;DHT22;13733;51.178;4.450;2022-07-29T08:19:13;22.10;99.90
25937;DHT22;13733;51.178;4.450;2022-07-29T08:21:39;22.30;99.90
25937;DHT22;13733;51.178;4.450;2022-07-29T08:24:05;22.30;99.90
25937;DHT22;13733;51.178;4.450;2022-07-29T08:26:50;22.30;99.90
25937;DHT22;13733;51.178;4.450;2022-07-29T08:29:16;22.40;99.90
25937;DHT22;13733;51.178;4.450;2022-07-29T08:31:42;22.50;99.90
25937;DHT22;13733;51.178;4.450;2022-07-29T08:34:07;22.70;99.90
25937;DHT22;13733;51.178;4.450;2022-07-29T08:36:33;22.70;99.90
25937;DHT22;13733;51.178;4.450;2022-07-29T08:39:00;22.80;99.90
25937;DHT22;13733;51.178;4.450;2022-07-29T08:41:26;22.90;99.90
25937;DHT22;13733;51.178;4.450;2022-07-29T08:43:52;23.10;99.90
25937;DHT22;13733;51.178;4.450;2022-07-29T08:46:19;23.20;99.90
25937;DHT22;13733;51.178;4.450;2022-07-29T08:48:45;23.30;99.90
25937;DHT22;13733;51.178;4.450;2022-07-29T08:51:16;23.30;99.90
25937;DHT22;13733;51.178;4.450;2022-07-29T08:53:43;23.50;99.90
25937;DHT22;13733;51.178;4.450;2022-07-29T08:56:16;23.60;99.90
25937;DHT22;13733;51.178;4.450;2022-07-29T08:58:43;23.60;99.90
25937;DHT22;13733;51.178;4.450;2022-07-29T09:01:10;23.60;99.90
25937;DHT22;13733;51.178;4.450;2022-07-29T09:03:38;23.70;99.90
25937;DHT22;13733;51.178;4.450;2022-07-29T09:06:05;23.60;99.90
25937;DHT22;13733;51.178;4.450;2022-07-29T09:08:32;23.60;99.90
25937;DHT22;13733;51.178;4.450;2022-07-29T09:11:00;23.70;99.90
25937;DHT22;13733;51.178;4.450;2022-07-29T09:13:26;23.80;99.80
25937;DHT22;13733;51.178;4.450;2022-07-29T09:15:52;23.90;99.90
25937;DHT22;13733;51.178;4.450;2022-07-29T09:21:04;24.10;99.10
25937;DHT22;13733;51.178;4.450;2022-07-29T09:24:10;24.20;98.70
25937;DHT22;13733;51.178;4.450;2022-07-29T09:26:39;24.10;98.60
25937;DHT22;13733;51.178;4.450;2022-07-29T09:29:23;24.20;99.10
25937;DHT22;13733;51.178;4.450;2022-07-29T09:31:52;24.20;98.40
25937;DHT22;13733;51.178;4.450;2022-07-29T09:34:27;24.20;98.30
25937;DHT22;13733;51.178;4.450;2022-07-29T09:36:54;24.30;97.30
25937;DHT22;13733;51.178;4.450;2022-07-29T09:42:04;24.30;97.10
25937;DHT22;13733;51.178;4.450;2022-07-29T09:44:47;24.50;96.30
25937;DHT22;13733;51.178;4.450;2022-07-29T09:47:15;24.70;94.60
25937;DHT22;13733;51.178;4.450;2022-07-29T09:49:57;24.70;94.70
25937;DHT22;13733;51.178;4.450;2022-07-29T09:52:28;24.70;94.90
25937;DHT22;13733;51.178;4.450;2022-07-29T09:55:12;24.80;94.80
25937;DHT22;13733;51.178;4.450;2022-07-29T09:57:38;25.00;93.90
25937;DHT22;13733;51.178;4.450;2022-07-29T10:00:08;25.10;93.40
25937;DHT22;13733;51.178;4.450;2022-07-29T10:02:42;25.10;92.70
25937;DHT22;13733;51.178;4.450;2022-07-29T10:05:24;25.20;91.50
25937;DHT22;13733;51.178;4.450;2022-07-29T10:07:56;25.40;91.30
25937;DHT22;13733;51.178;4.450;2022-07-29T10:12:52;25.50;91.70
25937;DHT22;13733;51.178;4.450;2022-07-29T10:15:23;25.70;90.70
25937;DHT22;13733;51.178;4.450;2022-07-29T10:17:50;25.90;90.10
25937;DHT22;13733;51.178;4.450;2022-07-29T10:20:17;25.90;88.10
25937;DHT22;13733;51.178;4.450;2022-07-29T10:22:43;26.10;86.00
25937;DHT22;13733;51.178;4.450;2022-07-29T10:25:10;26.20;85.00
25937;DHT22;13733;51.178;4.450;2022-07-29T10:27:36;26.30;82.90
25937;DHT22;13733;51.178;4.450;2022-07-29T10:30:03;26.30;80.50
25937;DHT22;13733;51.178;4.450;2022-07-29T10:44:18;27.00;79.90
25937;DHT22;13733;51.178;4.450;2022-07-29T10:46:44;27.20;76.10
25937;DHT22;13733;51.178;4.450;2022-07-29T10:57:17;27.50;74.50
25937;DHT22;13733;51.178;4.450;2022-07-29T10:59:49;27.60;74.60
25937;DHT22;13733;51.178;4.450;2022-07-29T11:05:00;28.50;72.00
25937;DHT22;13733;51.178;4.450;2022-07-29T11:07:27;29.10;68.80
25937;DHT22;13733;51.178;4.450;2022-07-29T11:15:09;31.20;57.70
25937;DHT22;13733;51.178;4.450;2022-07-29T11:23:16;31.80;50.50
25937;DHT22;13733;51.178;4.450;2022-07-29T11:25:42;31.60;50.30
25937;DHT22;13733;51.178;4.450;2022-07-29T11:28:19;32.20;50.70
25937;DHT22;13733;51.178;4.450;2022-07-29T11:30:53;32.60;48.90
25937;DHT22;13733;51.178;4.450;2022-07-29T11:33:32;33.10;47.30
25937;DHT22;13733;51.178;4.450;2022-07-29T11:36:08;33.60;45.10
25937;DHT22;13733;51.178;4.450;2022-07-29T11:38:36;33.90;44.70
25937;DHT22;13733;51.178;4.450;2022-07-29T11:44:09;31.80;44.10
25937;DHT22;13733;51.178;4.450;2022-07-29T11:46:52;32.00;45.80
25937;DHT22;13733;51.178;4.450;2022-07-29T11:49:26;32.00;45.10
25937;DHT22;13733;51.178;4.450;2022-07-29T11:51:53;32.00;45.00
25937;DHT22;13733;51.178;4.450;2022-07-29T11:54:27;31.70;45.60
25937;DHT22;13733;51.178;4.450;2022-07-29T11:56:57;32.50;45.60
25937;DHT22;13733;51.178;4.450;2022-07-29T11:59:25;33.00;43.30
25937;DHT22;13733;51.178;4.450;2022-07-29T12:01:58;33.50;43.00
25937;DHT22;13733;51.178;4.450;2022-07-29T12:04:24;34.10;41.80
25937;DHT22;13733;51.178;4.450;2022-07-29T12:06:53;34.60;41.10
25937;DHT22;13733;51.178;4.450;2022-07-29T12:09:20;35.60;39.20
25937;DHT22;13733;51.178;4.450;2022-07-29T12:11:47;35.80;37.90
25937;DHT22;13733;51.178;4.450;2022-07-29T12:14:33;34.70;38.50
25937;DHT22;13733;51.178;4.450;2022-07-29T12:16:59;34.70;39.90
25937;DHT22;13733;51.178;4.450;2022-07-29T12:19:50;34.90;39.80
25937;DHT22;13733;51.178;4.450;2022-07-29T12:22:30;35.50;39.00
25937;DHT22;13733;51.178;4.450;2022-07-29T12:25:10;35.50;39.40
25937;DHT22;13733;51.178;4.450;2022-07-29T12:27:37;35.50;38.60
25937;DHT22;13733;51.178;4.450;2022-07-29T12:30:06;35.30;39.30
25937;DHT22;13733;51.178;4.450;2022-07-29T12:32:36;36.00;37.40
25937;DHT22;13733;51.178;4.450;2022-07-29T12:35:05;36.80;36.90
25937;DHT22;13733;51.178;4.450;2022-07-29T12:37:35;37.20;34.20
25937;DHT22;13733;51.178;4.450;2022-07-29T12:40:06;37.40;33.50
25937;DHT22;13733;51.178;4.450;2022-07-29T12:42:33;37.50;33.70
25937;DHT22;13733;51.178;4.450;2022-07-29T12:44:59;38.30;33.40
25937;DHT22;13733;51.178;4.450;2022-07-29T12:47:25;36.70;32.40
25937;DHT22;13733;51.178;4.450;2022-07-29T12:49:51;36.10;32.50
25937;DHT22;13733;51.178;4.450;2022-07-29T12:52:35;35.70;32.90
25937;DHT22;13733;51.178;4.450;2022-07-29T12:55:02;36.00;33.20
25937;DHT22;13733;51.178;4.450;2022-07-29T12:57:28;36.00;32.80
25937;DHT22;13733;51.178;4.450;2022-07-29T13:02:28;36.10;32.10
25937;DHT22;13733;51.178;4.450;2022-07-29T13:04:57;36.10;30.50
25937;DHT22;13733;51.178;4.450;2022-07-29T13:07:24;36.60;31.10
25937;DHT22;13733;51.178;4.450;2022-07-29T13:09:50;36.90;31.00
25937;DHT22;13733;51.178;4.450;2022-07-29T13:12:16;37.10;30.90
25937;DHT22;13733;51.178;4.450;2022-07-29T13:14:48;37.60;30.70
25937;DHT22;13733;51.178;4.450;2022-07-29T13:17:20;38.00;29.20
25937;DHT22;13733;51.178;4.450;2022-07-29T13:19:52;38.30;29.20
25937;DHT22;13733;51.178;4.450;2022-07-29T13:22:20;36.90;30.00
25937;DHT22;13733;51.178;4.450;2022-07-29T13:27:19;37.20;29.50
25937;DHT22;13733;51.178;4.450;2022-07-29T13:29:46;37.30;29.40
25937;DHT22;13733;51.178;4.450;2022-07-29T13:32:12;38.00;29.20
25937;DHT22;13733;51.178;4.450;2022-07-29T13:34:39;38.00;28.70
25937;DHT22;13733;51.178;4.450;2022-07-29T13:37:05;37.70;28.50
25937;DHT22;13733;51.178;4.450;2022-07-29T13:39:31;38.10;28.40
25937;DHT22;13733;51.178;4.450;2022-07-29T13:41:56;37.90;28.50
25937;DHT22;13733;51.178;4.450;2022-07-29T13:44:22;37.80;28.70
25937;DHT22;13733;51.178;4.450;2022-07-29T13:46:48;37.40;29.30
25937;DHT22;13733;51.178;4.450;2022-07-29T13:49:14;38.10;29.40
25937;DHT22;13733;51.178;4.450;2022-07-29T13:51:41;38.60;28.50
25937;DHT22;13733;51.178;4.450;2022-07-29T13:54:07;38.90;28.00
25937;DHT22;13733;51.178;4.450;2022-07-29T13:56:33;38.60;27.50
25937;DHT22;13733;51.178;4.450;2022-07-29T13:58:59;38.10;27.90
25937;DHT22;13733;51.178;4.450;2022-07-29T14:01:25;37.50;28.20
25937;DHT22;13733;51.178;4.450;2022-07-29T14:03:52;36.80;28.60
25937;DHT22;13733;51.178;4.450;2022-07-29T14:06:18;37.20;28.60
25937;DHT22;13733;51.178;4.450;2022-07-29T14:08:44;38.00;28.10
25937;DHT22;13733;51.178;4.450;2022-07-29T14:11:10;38.30;27.80
25937;DHT22;13733;51.178;4.450;2022-07-29T14:13:36;38.20;27.30
25937;DHT22;13733;51.178;4.450;2022-07-29T14:16:01;38.40;27.00
25937;DHT22;13733;51.178;4.450;2022-07-29T14:18:27;38.80;27.70
25937;DHT22;13733;51.178;4.450;2022-07-29T14:20:53;39.20;28.10
25937;DHT22;13733;51.178;4.450;2022-07-29T14:23:19;39.80;27.20
25937;DHT22;13733;51.178;4.450;2022-07-29T14:25:45;39.70;27.10
25937;DHT22;13733;51.178;4.450;2022-07-29T14:28:11;39.10;26.30
25937;DHT22;13733;51.178;4.450;2022-07-29T14:30:37;38.70;27.20
25937;DHT22;13733;51.178;4.450;2022-07-29T14:33:03;38.50;27.10
25937;DHT22;13733;51.178;4.450;2022-07-29T14:35:28;38.60;27.10
25937;DHT22;13733;51.178;4.450;2022-07-29T14:37:54;38.50;27.70
25937;DHT22;13733;51.178;4.450;2022-07-29T14:40:20;38.40;27.50
25937;DHT22;13733;51.178;4.450;2022-07-29T14:42:46;39.00;27.70
25937;DHT22;13733;51.178;4.450;2022-07-29T14:45:11;39.60;27.30
25937;DHT22;13733;51.178;4.450;2022-07-29T14:47:38;40.30;26.90
25937;DHT22;13733;51.178;4.450;2022-07-29T14:50:06;40.30;26.60
25937;DHT22;13733;51.178;4.450;2022-07-29T14:52:32;40.50;26.50
25937;DHT22;13733;51.178;4.450;2022-07-29T14:54:58;40.70;26.10
25937;DHT22;13733;51.178;4.450;2022-07-29T14:57:23;40.30;25.80
25937;DHT22;13733;51.178;4.450;2022-07-29T14:59:49;40.10;25.40
25937;DHT22;13733;51.178;4.450;2022-07-29T15:02:16;40.60;25.70
25937;DHT22;13733;51.178;4.450;2022-07-29T15:04:42;40.70;25.40
25937;DHT22;13733;51.178;4.450;2022-07-29T15:07:08;40.90;25.50
25937;DHT22;13733;51.178;4.450;2022-07-29T15:09:33;41.10;25.60
25937;DHT22;13733;51.178;4.450;2022-07-29T15:12:00;40.70;25.30
25937;DHT22;13733;51.178;4.450;2022-07-29T15:14:25;40.50;25.40
25937;DHT22;13733;51.178;4.450;2022-07-29T15:16:53;40.80;26.00
25937;DHT22;13733;51.178;4.450;2022-07-29T15:19:19;41.50;25.40
25937;DHT22;13733;51.178;4.450;2022-07-29T15:21:45;42.10;25.00
25937;DHT22;13733;51.178;4.450;2022-07-29T15:24:10;41.10;25.40
25937;DHT22;13733;51.178;4.450;2022-07-29T15:26:36;41.20;25.40
25937;DHT22;13733;51.178;4.450;2022-07-29T15:29:02;41.50;25.10
25937;DHT22;13733;51.178;4.450;2022-07-29T15:31:28;41.10;25.20
25937;DHT22;13733;51.178;4.450;2022-07-29T15:33:55;41.00;24.70
25937;DHT22;13733;51.178;4.450;2022-07-29T15:36:21;40.60;25.00
25937;DHT22;13733;51.178;4.450;2022-07-29T15:38:47;39.90;25.20
25937;DHT22;13733;51.178;4.450;2022-07-29T15:41:14;40.00;25.20
25937;DHT22;13733;51.178;4.450;2022-07-29T15:43:48;40.50;25.30
25937;DHT22;13733;51.178;4.450;2022-07-29T15:46:15;40.50;25.10
25937;DHT22;13733;51.178;4.450;2022-07-29T15:49:01;40.00;25.20
25937;DHT22;13733;51.178;4.450;2022-07-29T15:51:27;40.60;25.30
25937;DHT22;13733;51.178;4.450;2022-07-29T15:53:53;40.60;25.40
25937;DHT22;13733;51.178;4.450;2022-07-29T15:56:19;40.40;26.30
25937;DHT22;13733;51.178;4.450;2022-07-29T15:58:45;41.00;25.70
25937;DHT22;13733;51.178;4.450;2022-07-29T16:01:12;40.60;25.00
25937;DHT22;13733;51.178;4.450;2022-07-29T16:03:37;39.80;25.80
25937;DHT22;13733;51.178;4.450;2022-07-29T16:06:04;40.20;25.60
25937;DHT22;13733;51.178;4.450;2022-07-29T16:08:29;40.30;25.70
25937;DHT22;13733;51.178;4.450;2022-07-29T16:10:55;40.40;26.20
25937;DHT22;13733;51.178;4.450;2022-07-29T16:13:21;40.70;25.70
25937;DHT22;13733;51.178;4.450;2022-07-29T16:15:49;40.70;25.40
25937;DHT22;13733;51.178;4.450;2022-07-29T16:18:15;40.50;25.50
25937;DHT22;13733;51.178;4.450;2022-07-29T16:20:41;40.70;25.40
25937;DHT22;13733;51.178;4.450;2022-07-29T16:23:07;40.50;25.90
25937;DHT22;13733;51.178;4.450;2022-07-29T16:25:39;40.50;25.30
25937;DHT22;13733;51.178;4.450;2022-07-29T16:28:05;40.60;25.80
25937;DHT22;13733;51.178;4.450;2022-07-29T16:30:31;40.40;25.00
25937;DHT22;13733;51.178;4.450;2022-07-29T16:32:57;40.80;25.40
25937;DHT22;13733;51.178;4.450;2022-07-29T16:35:23;41.10;25.50
25937;DHT22;13733;51.178;4.450;2022-07-29T16:37:49;41.00;25.30
25937;DHT22;13733;51.178;4.450;2022-07-29T16:40:15;41.20;25.00